Time;durP1;ratioP1;P1;durP2;ratioP2;P2;SDS_P1;SDS_P2;PMS_P1;PMS_P2;Temp;Humidity;BMP_temperature;BMP_pressure;BME280_temperature;BME280_humidity;BME280_pressure;Samples;Min_cycle;Max_cycle;Signal;HPM_P1;HPM_P2
2022/01/24 00:01:58;;;;;;;13.68;6.20;;;;;;;-0.85;89.64;101042.97;1905123;75;21040;-55
2022/01/24 00:04:27;;;;;;;18.05;6.42;;;;;;;-0.86;89.27;101043.41;1905222;75;21012;-56
2022/01/24 00:06:55;;;;;;;10.93;6.03;;;;;;;-0.83;89.22;101042.17;1905169;75;21032;-56
2022/01/24 00:09:24;;;;;;;13.25;6.47;;;;;;;-0.80;89.17;101051.23;1905115;75;21189;-56
2022/01/24 00:14:52;;;;;;;15.68;6.00;;;;;;;-0.82;89.13;101035.27;1924616;74;21174;-55
2022/01/24 00:27:54;;;;;;;13.50;6.12;;;;;;;-0.87;89.61;101030.02;1950475;73;21461;-57
2022/01/24 00:30:23;;;;;;;9.23;4.10;;;;;;;-0.89;89.45;101026.55;1974466;73;21058;-57
2022/01/24 00:32:52;;;;;;;13.65;5.80;;;;;;;-0.89;89.29;101024.41;1974455;73;21050;-57
2022/01/24 00:35:21;;;;;;;14.60;5.72;;;;;;;-0.94;89.17;101024.77;1943849;73;21044;-57
2022/01/24 00:37:50;;;;;;;9.48;5.10;;;;;;;-0.95;89.04;101030.37;1928769;74;21078;-56
2022/01/24 00:40:19;;;;;;;14.53;6.17;;;;;;;-1.02;88.89;101034.58;1931429;74;21036;-57
2022/01/24 00:42:56;;;;;;;13.75;5.15;;;;;;;-1.12;89.11;101043.51;1936120;74;21025;-57
2022/01/24 00:55:49;;;;;;;15.83;6.28;;;;;;;-1.12;89.13;101023.69;1924494;74;21043;-59
2022/01/24 00:58:18;;;;;;;13.40;5.95;;;;;;;-1.18;89.25;101008.98;1924593;74;21027;-59
2022/01/24 01:00:46;;;;;;;8.33;3.30;;;;;;;-1.18;89.31;101006.79;1924745;74;21124;-59
2022/01/24 01:03:16;;;;;;;11.78;4.62;;;;;;;-1.17;89.39;101017.59;1925472;74;21509;-58
2022/01/24 01:06:04;;;;;;;13.25;6.17;;;;;;;-1.19;89.27;101028.33;1932689;74;21048;-58
2022/01/24 01:19:11;;;;;;;9.10;4.33;;;;;;;-1.14;89.21;101046.47;1906030;75;21076;-57
2022/01/24 01:21:39;;;;;;;9.43;3.98;;;;;;;-1.12;89.10;101042.22;1906387;75;21053;-57
2022/01/24 01:24:08;;;;;;;12.68;4.67;;;;;;;-1.15;88.99;101042.16;1906163;74;21056;-57
2022/01/24 01:26:46;;;;;;;8.78;4.40;;;;;;;-1.18;88.80;101049.03;1906184;75;21053;-57
2022/01/24 01:29:18;;;;;;;11.83;4.97;;;;;;;-1.19;88.89;101055.03;1914520;74;21143;-57
2022/01/24 01:34:53;;;;;;;16.20;6.10;;;;;;;-1.19;88.88;101047.27;1939767;74;21582;-57
2022/01/24 01:37:30;;;;;;;12.15;4.97;;;;;;;-1.23;88.87;101033.87;1935166;74;21499;-57
2022/01/24 01:40:05;;;;;;;14.58;4.55;;;;;;;-1.26;89.17;101027.36;1931926;74;21039;-57
2022/01/24 01:55:46;;;;;;;8.60;4.03;;;;;;;-1.27;89.54;101064.41;1928244;74;21112;-57
2022/01/24 01:58:18;;;;;;;14.85;5.55;;;;;;;-1.27;89.63;101056.65;1928156;74;21558;-58
2022/01/24 02:00:49;;;;;;;11.20;4.95;;;;;;;-1.26;89.57;101046.73;1914657;74;21022;-58
2022/01/24 02:03:20;;;;;;;12.35;5.50;;;;;;;-1.22;89.52;101041.20;1890887;75;21181;-57
2022/01/24 02:05:50;;;;;;;10.03;3.90;;;;;;;-1.19;89.55;101043.41;1837212;78;21163;-56
2022/01/24 02:08:18;;;;;;;10.80;4.87;;;;;;;-1.18;89.50;101043.86;1868427;77;21470;-56
2022/01/24 02:10:47;;;;;;;10.43;4.53;;;;;;;-1.19;89.37;101042.11;1837393;78;21595;-58
2022/01/24 02:13:16;;;;;;;11.15;4.80;;;;;;;-1.20;89.56;101050.73;1870152;76;21049;-58
2022/01/24 02:18:29;;;;;;;9.45;4.55;;;;;;;-1.21;89.44;101061.03;1866659;77;21032;-58
2022/01/24 02:25:56;;;;;;;8.95;4.22;;;;;;;-1.20;89.44;101055.89;1900375;75;21125;-58
2022/01/24 02:28:28;;;;;;;10.82;3.72;;;;;;;-1.21;89.41;101063.19;1899570;75;21083;-58
2022/01/24 02:31:17;;;;;;;6.05;3.30;;;;;;;-1.21;89.41;101064.48;1898836;75;21064;-58
2022/01/24 02:33:26;;;;;;;11.57;4.78;;;;;;;-1.19;89.35;101084.75;1894062;75;21166;-58
2022/01/24 02:35:55;;;;;;;10.90;4.35;;;;;;;-1.19;89.35;101090.34;1898915;75;21068;-58
2022/01/24 02:49:17;;;;;;;10.55;3.70;;;;;;;-1.14;89.56;101116.23;1898953;75;21064;-58
2022/01/24 02:51:49;;;;;;;10.82;4.97;;;;;;;-1.17;89.58;101115.78;1898897;75;21020;-58
2022/01/24 02:54:23;;;;;;;10.95;4.00;;;;;;;-1.17;89.53;101112.77;1898780;75;21145;-57
2022/01/24 02:56:53;;;;;;;10.10;3.77;;;;;;;-1.16;89.65;101112.36;1898033;75;21111;-59
2022/01/24 02:59:21;;;;;;;10.32;4.20;;;;;;;-1.15;89.78;101104.18;1898892;75;21494;-57
2022/01/24 03:01:50;;;;;;;10.13;3.92;;;;;;;-1.14;89.71;101095.56;1900229;74;21059;-57
2022/01/24 03:04:19;;;;;;;11.35;3.47;;;;;;;-1.15;89.67;101101.59;1926099;74;21099;-58
2022/01/24 03:06:49;;;;;;;11.63;4.35;;;;;;;-1.18;89.58;101102.00;1927371;74;21106;-57
2022/01/24 03:09:19;;;;;;;7.92;3.80;;;;;;;-1.18;89.43;101100.71;1927158;74;21123;-58
2022/01/24 03:14:27;;;;;;;8.90;4.00;;;;;;;-1.23;89.60;101099.77;1927054;74;21025;-57
2022/01/24 03:16:56;;;;;;;7.47;3.77;;;;;;;-1.19;89.55;101095.08;1927161;74;21033;-57
2022/01/24 03:19:25;;;;;;;8.93;3.70;;;;;;;-1.17;89.42;101087.36;1927108;74;21534;-57
2022/01/24 03:21:53;;;;;;;11.38;5.05;;;;;;;-1.18;89.57;101098.13;1927040;74;21061;-59
2022/01/24 03:24:23;;;;;;;10.90;3.95;;;;;;;-1.18;89.53;101105.88;1926889;74;21037;-59
2022/01/24 03:26:52;;;;;;;13.53;5.05;;;;;;;-1.16;89.52;101108.48;1925185;74;21417;-59
2022/01/24 03:29:21;;;;;;;10.93;4.42;;;;;;;-1.18;89.58;101113.62;1925223;74;21057;-57
2022/01/24 03:31:49;;;;;;;10.05;4.72;;;;;;;-1.15;89.51;101123.12;1925308;74;21107;-58
2022/01/24 03:34:18;;;;;;;12.07;4.40;;;;;;;-1.17;89.57;101118.37;1925307;74;20998;-57
2022/01/24 03:36:47;;;;;;;8.15;4.05;;;;;;;-1.16;89.70;101125.28;1925091;74;21088;-58
2022/01/24 03:39:15;;;;;;;6.30;3.62;;;;;;;-1.18;89.79;101123.97;1925386;74;21021;-58
2022/01/24 03:41:44;;;;;;;7.87;4.33;;;;;;;-1.19;89.76;101127.38;1927165;73;21081;-58
2022/01/24 03:44:15;;;;;;;10.65;4.10;;;;;;;-1.23;89.60;101121.73;1927198;74;21439;-58
2022/01/24 03:46:49;;;;;;;11.05;4.65;;;;;;;-1.21;89.54;101135.54;1927179;74;21010;-58
2022/01/24 03:52:03;;;;;;;9.45;4.58;;;;;;;-1.19;89.52;101139.01;1893863;74;21033;-59
2022/01/24 03:54:32;;;;;;;11.28;3.92;;;;;;;-1.21;89.44;101131.66;1893898;76;21092;-59
2022/01/24 03:57:00;;;;;;;7.87;3.37;;;;;;;-1.21;89.62;101138.13;1893923;76;21111;-57
2022/01/24 03:59:31;;;;;;;7.45;3.95;;;;;;;-1.20;89.63;101134.70;1893836;76;21424;-57
2022/01/24 04:02:00;;;;;;;9.28;3.70;;;;;;;-1.18;89.56;101130.42;1893904;76;21041;-58
2022/01/24 04:04:30;;;;;;;11.65;4.60;;;;;;;-1.20;89.43;101128.25;1908908;74;21053;-58
2022/01/24 04:06:59;;;;;;;10.65;4.35;;;;;;;-1.26;89.47;101126.84;1937492;74;21065;-58
2022/01/24 04:09:28;;;;;;;10.23;4.67;;;;;;;-1.24;89.61;101131.60;1937444;74;21044;-57
2022/01/24 04:11:58;;;;;;;8.85;4.17;;;;;;;-1.25;89.82;101152.28;1937439;74;21545;-59
2022/01/24 04:14:43;;;;;;;13.58;4.53;;;;;;;-1.23;89.85;101156.61;1937489;74;21136;-59
2022/01/24 04:22:18;;;;;;;9.43;3.87;;;;;;;-1.23;89.75;101148.86;1900450;75;21143;-58
2022/01/24 04:24:49;;;;;;;10.10;3.80;;;;;;;-1.23;89.74;101161.78;1900360;75;21122;-59
2022/01/24 04:27:17;;;;;;;8.23;3.58;;;;;;;-1.21;89.61;101167.84;1900525;75;21044;-58
2022/01/24 04:29:46;;;;;;;12.65;5.33;;;;;;;-1.19;89.52;101177.77;1900216;75;21109;-57
2022/01/24 04:32:16;;;;;;;11.95;4.83;;;;;;;-1.15;89.43;101184.29;1900446;75;21196;-57
2022/01/24 04:34:45;;;;;;;9.75;4.62;;;;;;;-1.15;89.61;101179.13;1900514;75;21141;-57
2022/01/24 04:37:14;;;;;;;11.93;4.33;;;;;;;-1.21;89.68;101175.59;1900442;75;21563;-57
2022/01/24 04:39:44;;;;;;;11.05;4.60;;;;;;;-1.23;89.68;101168.23;1900506;75;21079;-60
2022/01/24 04:42:18;;;;;;;12.43;4.72;;;;;;;-1.21;89.77;101170.42;1896991;75;21028;-58
2022/01/24 04:45:07;;;;;;;10.13;4.47;;;;;;;-1.18;89.76;101184.70;1897946;75;21146;-58
2022/01/24 04:47:30;;;;;;;13.15;4.37;;;;;;;-1.16;89.67;101189.89;1894459;75;21538;-59
2022/01/24 04:55:17;;;;;;;12.90;4.87;;;;;;;-1.15;89.53;101179.13;1900525;75;21063;-58
2022/01/24 04:57:49;;;;;;;11.78;4.83;;;;;;;-1.13;89.45;101189.06;1900541;75;21553;-58
2022/01/24 05:00:18;;;;;;;10.75;3.98;;;;;;;-1.13;89.45;101189.06;1900489;75;21122;-58
2022/01/24 05:02:46;;;;;;;10.45;4.62;;;;;;;-1.10;89.56;101191.70;1900403;75;21020;-58
2022/01/24 05:05:19;;;;;;;10.15;3.30;;;;;;;-1.15;89.68;101198.08;1922981;74;21045;-57
2022/01/24 05:07:45;;;;;;;9.48;3.87;;;;;;;-1.13;89.81;101211.89;1927140;74;21076;-57
2022/01/24 05:10:22;;;;;;;12.33;4.60;;;;;;;-1.12;89.90;101223.12;1927212;74;21026;-57
2022/01/24 05:23:39;;;;;;;10.23;4.28;;;;;;;-1.10;90.11;101240.81;1932399;73;21007;-58
2022/01/24 05:26:09;;;;;;;13.55;5.25;;;;;;;-1.07;90.00;101236.96;1959519;73;21161;-57
2022/01/24 05:28:38;;;;;;;9.38;4.10;;;;;;;-1.08;89.83;101237.83;1959292;73;21015;-57
2022/01/24 05:31:07;;;;;;;10.55;5.15;;;;;;;-1.06;89.81;101241.30;1959253;73;21113;-57
2022/01/24 05:33:36;;;;;;;12.47;4.85;;;;;;;-1.05;89.87;101249.09;1957749;73;21093;-58
2022/01/24 05:36:05;;;;;;;13.03;4.47;;;;;;;-1.03;90.00;101251.70;1959219;73;21019;-58
2022/01/24 05:38:34;;;;;;;12.85;5.35;;;;;;;-1.00;89.85;101260.37;1959268;72;21089;-58
2022/01/24 05:41:03;;;;;;;11.35;5.20;;;;;;;-0.95;89.80;101255.70;1959287;73;20987;-57
2022/01/24 05:43:32;;;;;;;11.33;5.55;;;;;;;-0.94;89.85;101238.92;1959431;72;21453;-57
2022/01/24 05:46:00;;;;;;;10.32;4.35;;;;;;;-0.92;89.79;101220.83;1959275;73;21034;-57
2022/01/24 05:48:29;;;;;;;13.70;5.60;;;;;;;-0.91;89.87;101223.87;1955645;73;21136;-58
2022/01/24 05:50:58;;;;;;;10.15;4.40;;;;;;;-0.89;89.87;101217.87;1927269;73;21123;-57
2022/01/24 05:53:27;;;;;;;10.25;3.90;;;;;;;-0.87;89.99;101217.47;1927192;74;21114;-57
2022/01/24 05:55:55;;;;;;;10.95;4.90;;;;;;;-0.80;90.14;101227.06;1935224;73;21066;-58
2022/01/24 05:58:24;;;;;;;11.30;4.85;;;;;;;-0.74;90.13;101240.94;1959138;72;21098;-59
2022/01/24 06:00:52;;;;;;;13.65;4.72;;;;;;;-0.72;90.05;101244.41;1959227;72;21035;-58
2022/01/24 06:03:21;;;;;;;10.05;4.50;;;;;;;-0.70;90.13;101259.12;1959345;73;21039;-58
2022/01/24 06:05:50;;;;;;;11.73;3.58;;;;;;;-0.67;89.95;101278.98;1949405;73;21552;-60
2022/01/24 06:08:19;;;;;;;11.78;5.10;;;;;;;-0.71;90.08;101300.48;1949171;73;21031;-58
2022/01/24 06:10:48;;;;;;;13.08;4.92;;;;;;;-0.69;90.13;101306.54;1948964;73;21430;-58
2022/01/24 06:13:17;;;;;;;13.62;5.80;;;;;;;-0.68;90.04;101305.28;1948956;73;21434;-59
2022/01/24 06:15:46;;;;;;;11.83;4.90;;;;;;;-0.67;90.06;101311.31;1948963;73;21540;-58
2022/01/24 06:18:16;;;;;;;12.05;4.90;;;;;;;-0.65;90.00;101318.67;1928529;73;21464;-57
2022/01/24 06:20:45;;;;;;;10.98;4.97;;;;;;;-0.66;89.98;101306.59;1926966;74;21073;-58
2022/01/24 06:23:15;;;;;;;13.22;5.03;;;;;;;-0.65;89.92;101297.55;1926871;74;21014;-57
2022/01/24 06:25:45;;;;;;;12.58;5.12;;;;;;;-0.67;89.99;101301.83;1926784;74;21036;-58
2022/01/24 06:28:13;;;;;;;11.85;5.12;;;;;;;-0.64;90.05;101288.09;1926955;74;21018;-57
2022/01/24 06:30:44;;;;;;;12.37;5.62;;;;;;;-0.55;90.12;101284.35;1926863;74;21025;-57
2022/01/24 06:33:13;;;;;;;13.00;6.05;;;;;;;-0.47;90.36;101294.81;1928266;73;21091;-58
2022/01/24 06:35:42;;;;;;;12.80;4.75;;;;;;;-0.45;90.55;101297.86;1926833;74;20997;-58
2022/01/24 06:38:10;;;;;;;13.65;5.40;;;;;;;-0.37;90.61;101300.55;1926676;74;21098;-58
2022/01/24 06:40:39;;;;;;;9.45;4.67;;;;;;;-0.29;90.69;101300.69;1926943;74;21022;-59
2022/01/24 06:43:08;;;;;;;9.43;4.37;;;;;;;-0.22;90.70;101296.05;1928104;73;21075;-58
2022/01/24 06:45:36;;;;;;;11.25;4.78;;;;;;;-0.16;90.56;101300.45;1926837;74;21021;-58
2022/01/24 06:48:05;;;;;;;10.98;4.15;;;;;;;-0.13;90.49;101311.72;1926947;74;21033;-58
2022/01/24 06:50:34;;;;;;;15.48;5.45;;;;;;;-0.12;90.44;101313.44;1926713;74;21107;-58
2022/01/24 06:53:03;;;;;;;10.53;5.10;;;;;;;-0.12;90.36;101317.31;1926590;74;21062;-58
2022/01/24 06:55:32;;;;;;;11.53;4.70;;;;;;;-0.08;90.38;101315.64;1926993;74;21041;-57
2022/01/24 06:58:01;;;;;;;8.98;4.03;;;;;;;-0.04;90.41;101320.01;1928215;73;21049;-57
2022/01/24 07:00:31;;;;;;;13.32;5.20;;;;;;;-0.02;90.44;101320.50;1926838;74;21009;-57
2022/01/24 07:03:00;;;;;;;9.75;4.42;;;;;;;-0.04;90.24;101322.59;1928096;73;21096;-57
2022/01/24 07:05:30;;;;;;;11.90;5.62;;;;;;;0.01;90.41;101317.50;1929920;74;21526;-58
2022/01/24 07:07:59;;;;;;;12.45;4.65;;;;;;;0.06;90.46;101319.73;1937596;74;21016;-58
2022/01/24 07:10:28;;;;;;;12.78;5.42;;;;;;;0.11;90.56;101319.34;1937500;74;21037;-57
2022/01/24 07:12:57;;;;;;;9.80;3.85;;;;;;;0.13;90.46;101318.53;1937508;74;21526;-57
2022/01/24 07:15:33;;;;;;;10.80;4.33;;;;;;;0.14;90.31;101311.63;1939120;73;21452;-57
2022/01/24 07:18:57;;;;;;;11.53;4.42;;;;;;;0.15;90.27;101314.67;1937308;74;21052;-58
2022/01/24 07:20:35;;;;;;;15.65;5.83;;;;;;;0.19;90.38;101316.45;1928515;73;21031;-57
2022/01/24 07:23:00;;;;;;;13.50;4.92;;;;;;;0.21;90.38;101327.69;1937409;74;21061;-57
2022/01/24 07:25:29;;;;;;;8.60;3.75;;;;;;;0.23;90.36;101336.78;1956327;73;21062;-57
2022/01/24 07:27:58;;;;;;;9.58;4.75;;;;;;;0.26;90.44;101335.10;1963178;73;21547;-59
2022/01/24 07:30:47;;;;;;;10.13;4.55;;;;;;;0.31;90.54;101348.09;1963180;72;21686;-58
2022/01/24 07:33:17;;;;;;;11.45;4.58;;;;;;;0.32;90.39;101350.71;1832582;78;21150;-58
2022/01/24 07:35:46;;;;;;;10.95;4.97;;;;;;;0.35;90.62;101344.28;1920817;74;21517;-58
2022/01/24 07:38:14;;;;;;;11.60;4.87;;;;;;;0.33;90.51;101351.58;1920508;75;21490;-57
2022/01/24 07:40:47;;;;;;;9.70;4.50;;;;;;;0.42;90.75;101348.23;1920381;74;21134;-58
2022/01/24 07:43:13;;;;;;;10.18;3.92;;;;;;;0.53;90.85;101353.13;1924757;74;21017;-57
2022/01/24 07:45:46;;;;;;;10.53;4.87;;;;;;;0.57;91.00;101350.59;1926597;74;21017;-57
2022/01/24 07:48:16;;;;;;;12.05;4.80;;;;;;;0.60;90.92;101346.30;1880121;76;21052;-57
2022/01/24 07:50:46;;;;;;;11.30;5.00;;;;;;;0.64;90.92;101342.89;1926156;74;21001;-58
2022/01/24 07:53:17;;;;;;;10.95;4.75;;;;;;;0.71;90.90;101344.70;1880019;76;21056;-58
2022/01/24 07:55:46;;;;;;;13.28;5.28;;;;;;;0.76;90.77;101343.03;1926591;74;21456;-58
2022/01/24 07:58:15;;;;;;;11.95;5.22;;;;;;;0.82;90.77;101340.93;1880084;76;21101;-58
2022/01/24 08:00:44;;;;;;;13.28;5.47;;;;;;;0.87;90.66;101340.56;1926079;74;21107;-58
2022/01/24 08:03:14;;;;;;;13.62;5.25;;;;;;;0.85;90.32;101339.64;1880104;76;21590;-58
2022/01/24 08:05:44;;;;;;;13.00;5.17;;;;;;;0.89;90.42;101344.03;1926582;74;21080;-59
2022/01/24 08:08:12;;;;;;;11.50;4.50;;;;;;;0.97;90.56;101356.64;1874499;76;21131;-58
2022/01/24 08:10:41;;;;;;;11.00;4.97;;;;;;;1.09;90.75;101368.44;1871852;77;21059;-57
2022/01/24 08:13:12;;;;;;;11.95;5.87;;;;;;;1.20;90.79;101380.23;1871863;77;21538;-58
2022/01/24 08:15:41;;;;;;;8.30;4.10;;;;;;;1.27;90.72;101381.14;1871855;77;21064;-58
2022/01/24 08:18:10;;;;;;;10.00;4.15;;;;;;;1.34;90.83;101398.06;1873301;76;21806;-59
2022/01/24 08:20:39;;;;;;;8.15;4.05;;;;;;;1.42;90.95;101397.27;1871848;77;21047;-59
2022/01/24 08:23:09;;;;;;;9.98;4.60;;;;;;;1.53;91.11;101392.64;1871849;77;21468;-59
2022/01/24 08:25:38;;;;;;;11.28;4.40;;;;;;;1.67;91.24;101390.58;1871980;77;21544;-58
2022/01/24 08:28:07;;;;;;;18.85;7.08;;;;;;;1.78;90.95;101392.83;1872067;77;21480;-57
2022/01/24 08:30:36;;;;;;;10.53;4.42;;;;;;;1.89;90.66;101406.75;1871539;77;21502;-59
2022/01/24 08:33:06;;;;;;;9.48;4.03;;;;;;;1.97;90.38;101400.31;1891246;74;21524;-59
2022/01/24 08:35:35;;;;;;;8.88;4.78;;;;;;;2.01;90.24;101394.71;1916020;75;21444;-59
2022/01/24 08:38:04;;;;;;;10.15;4.53;;;;;;;2.08;90.11;101401.69;1900580;75;21112;-58
2022/01/24 08:40:34;;;;;;;9.20;4.67;;;;;;;2.14;90.07;101405.64;1915983;75;21115;-58
2022/01/24 08:43:06;;;;;;;11.35;5.25;;;;;;;2.19;90.10;101402.63;1909099;74;21079;-58
2022/01/24 08:45:45;;;;;;;9.05;4.78;;;;;;;2.22;89.96;101411.75;1963571;72;21165;-58
2022/01/24 08:48:15;;;;;;;10.38;4.65;;;;;;;2.26;89.88;101415.23;1963445;72;20997;-57
2022/01/24 08:50:44;;;;;;;10.60;4.97;;;;;;;2.29;89.85;101408.33;1963870;73;21013;-58
2022/01/24 08:53:13;;;;;;;9.93;4.12;;;;;;;2.45;90.04;101387.61;1963032;73;21524;-58
2022/01/24 08:55:42;;;;;;;9.08;4.12;;;;;;;2.62;90.19;101388.56;1963500;72;21114;-58
2022/01/24 08:58:14;;;;;;;10.00;4.10;;;;;;;2.79;90.22;101391.22;1963541;73;21482;-58
2022/01/24 09:00:45;;;;;;;7.90;4.30;;;;;;;2.88;90.15;101398.20;1962636;72;21004;-57
2022/01/24 09:03:14;;;;;;;9.43;4.15;;;;;;;3.05;90.27;101400.40;1958787;73;21022;-57
2022/01/24 09:05:43;;;;;;;10.50;4.15;;;;;;;3.20;90.30;101411.27;1893625;76;21131;-57
2022/01/24 09:08:11;;;;;;;13.20;4.83;;;;;;;3.28;90.38;101413.48;1957303;73;21022;-58
2022/01/24 09:10:43;;;;;;;9.55;5.15;;;;;;;3.41;90.34;101419.98;1915960;75;21521;-57
2022/01/24 09:13:11;;;;;;;8.43;4.40;;;;;;;3.41;90.37;101414.36;1900111;75;21044;-60
2022/01/24 09:15:41;;;;;;;12.10;4.97;;;;;;;3.30;90.34;101419.96;1915947;75;21119;-60
2022/01/24 09:18:10;;;;;;;11.63;4.42;;;;;;;3.29;90.40;101419.55;1900571;75;21499;-60
2022/01/24 09:20:39;;;;;;;8.35;3.85;;;;;;;3.41;90.36;101414.36;1884625;76;21074;-62
2022/01/24 09:23:09;;;;;;;5.97;3.75;;;;;;;3.63;90.39;101410.45;1897083;76;21478;-61
2022/01/24 09:25:39;;;;;;;8.73;4.05;;;;;;;3.76;90.21;101412.22;1952744;73;21092;-64
2022/01/24 09:28:07;;;;;;;8.20;4.30;;;;;;;3.66;89.83;101413.07;1949664;73;21574;-64
2022/01/24 09:30:36;;;;;;;10.75;4.95;;;;;;;3.56;90.16;101410.02;1955572;73;21027;-62
2022/01/24 09:33:05;;;;;;;12.63;5.55;;;;;;;3.75;90.03;101413.52;1955249;73;21449;-63
2022/01/24 09:35:34;;;;;;;7.95;4.28;;;;;;;3.91;89.34;101406.54;1955524;73;21038;-64
2022/01/24 09:38:03;;;;;;;8.85;4.12;;;;;;;4.35;88.97;101402.58;1955698;73;21476;-61
2022/01/24 09:40:31;;;;;;;7.87;4.55;;;;;;;4.83;88.10;101402.38;1951642;73;21124;-63
2022/01/24 09:43:01;;;;;;;9.40;4.92;;;;;;;5.13;87.86;101405.28;1942296;74;21077;-61
2022/01/24 09:45:29;;;;;;;8.10;4.08;;;;;;;5.43;87.69;101399.87;1942215;73;21401;-61
2022/01/24 09:47:59;;;;;;;5.58;3.50;;;;;;;5.89;87.09;101401.66;1942142;74;21088;-63
2022/01/24 09:50:27;;;;;;;5.25;3.72;;;;;;;6.07;86.67;101399.36;1942164;74;21022;-61
2022/01/24 09:52:56;;;;;;;6.95;4.25;;;;;;;6.24;86.10;101397.02;1942112;74;21026;-61
2022/01/24 09:55:25;;;;;;;8.15;4.25;;;;;;;6.33;85.42;101397.77;1946987;73;21062;-61
2022/01/24 09:57:54;;;;;;;7.65;4.55;;;;;;;6.43;84.58;101395.05;1957661;73;21449;-61
2022/01/24 10:00:25;;;;;;;10.03;5.25;;;;;;;6.18;84.80;101397.50;1919106;75;21528;-62
2022/01/24 10:02:56;;;;;;;11.83;6.58;;;;;;;6.44;84.31;101398.11;1886846;76;21444;-62
2022/01/24 10:05:34;;;;;;;10.93;6.50;;;;;;;6.48;84.22;101402.41;1855030;77;21052;-62
2022/01/24 10:08:06;;;;;;;16.60;10.20;;;;;;;6.69;83.88;101398.21;1855020;77;21475;-62
2022/01/24 10:10:46;;;;;;;20.17;13.68;;;;;;;6.38;84.67;101396.39;1886933;76;21044;-62
2022/01/24 10:16:48;;;;;;;18.70;14.50;;;;;;;5.67;86.14;101402.28;1866815;77;21055;-62
2022/01/24 10:19:21;;;;;;;21.93;15.00;;;;;;;5.37;86.79;101402.09;1923283;74;21038;-62
2022/01/24 10:21:53;;;;;;;10.58;8.93;;;;;;;5.10;87.05;101393.98;1923426;74;21078;-62
2022/01/24 10:24:41;;;;;;;4.62;3.67;;;;;;;4.84;87.71;101406.73;1923504;74;21120;-61
2022/01/24 10:27:15;;;;;;;6.50;4.12;;;;;;;4.22;87.18;101408.26;1923512;74;21089;-61
2022/01/24 10:29:52;;;;;;;8.20;4.60;;;;;;;3.90;88.14;101416.55;1923623;74;21058;-62
2022/01/24 10:32:36;;;;;;;4.15;2.62;;;;;;;3.90;89.06;101419.16;1923406;74;21156;-62
2022/01/24 10:35:26;;;;;;;12.05;7.70;;;;;;;3.88;89.42;101413.08;1892299;76;21083;-61
2022/01/24 10:38:33;;;;;;;12.43;9.15;;;;;;;3.94;89.74;101418.27;1861477;77;21075;-61
2022/01/24 10:43:43;;;;;;;5.70;3.10;;;;;;;4.13;90.15;101434.34;1861666;77;21091;-62
2022/01/24 10:46:12;;;;;;;6.12;2.62;;;;;;;3.91;89.96;101445.22;1893287;76;21033;-61
2022/01/24 10:48:44;;;;;;;4.67;3.02;;;;;;;3.68;89.77;101449.95;1861737;77;21498;-62
2022/01/24 10:51:22;;;;;;;8.23;3.52;;;;;;;3.59;89.76;101449.95;1861608;77;21475;-61
2022/01/24 10:53:57;;;;;;;9.58;5.92;;;;;;;3.57;89.58;101444.31;1861701;77;21070;-61
2022/01/24 10:56:35;;;;;;;17.57;10.20;;;;;;;3.71;89.95;101443.91;1861605;77;21051;-61
2022/01/24 10:59:13;;;;;;;7.20;5.42;;;;;;;4.03;90.17;101443.02;1893572;76;21525;-62
2022/01/24 11:01:44;;;;;;;5.72;4.62;;;;;;;4.48;90.52;101439.03;1893416;76;21071;-62
2022/01/24 11:04:15;;;;;;;7.15;4.60;;;;;;;4.66;90.50;101436.81;1861598;77;21470;-62
2022/01/24 11:06:47;;;;;;;7.08;4.10;;;;;;;4.88;90.75;101437.16;1861577;77;21125;-61
2022/01/24 11:09:33;;;;;;;5.40;4.05;;;;;;;5.09;90.75;101434.00;1861497;77;21039;-62
2022/01/24 11:12:08;;;;;;;7.03;3.70;;;;;;;5.26;90.93;101435.24;1861713;77;21154;-62
2022/01/24 11:14:36;;;;;;;6.95;4.55;;;;;;;5.43;91.03;101439.05;1861856;77;21059;-62
2022/01/24 11:17:07;;;;;;;5.53;3.87;;;;;;;5.59;91.06;101433.70;1893410;76;21501;-62
2022/01/24 11:19:42;;;;;;;8.78;4.90;;;;;;;6.01;89.78;101428.60;1861474;77;21125;-62
2022/01/24 11:22:18;;;;;;;9.70;4.40;;;;;;;6.18;88.50;101432.80;1861001;77;21114;-62
2022/01/24 11:24:45;;;;;;;9.55;4.08;;;;;;;6.76;87.51;101432.59;1860228;77;21024;-62
2022/01/24 11:27:11;;;;;;;8.93;4.97;;;;;;;8.44;82.15;101444.45;1861105;77;21094;-61
2022/01/24 11:29:41;;;;;;;8.68;5.25;;;;;;;8.54;80.62;101449.09;1861601;77;21568;-61
2022/01/24 11:32:16;;;;;;;6.45;4.00;;;;;;;7.63;82.64;101454.53;1861478;77;21438;-62
2022/01/24 11:34:50;;;;;;;6.37;4.28;;;;;;;6.87;83.44;101456.47;1851940;77;21153;-61
2022/01/24 11:37:46;;;;;;;7.37;4.00;;;;;;;6.21;83.11;101457.19;1871907;77;21121;-61
2022/01/24 11:40:17;;;;;;;6.47;4.28;;;;;;;5.79;84.08;101457.08;1850124;77;21064;-62
2022/01/24 11:42:49;;;;;;;6.45;3.70;;;;;;;6.23;83.47;101451.49;1837311;78;21549;-61
2022/01/24 11:45:21;;;;;;;6.58;3.92;;;;;;;5.88;83.29;101467.02;1871912;77;21023;-61
2022/01/24 11:47:50;;;;;;;8.05;4.80;;;;;;;5.28;83.30;101478.73;1850165;77;21032;-61
2022/01/24 11:50:37;;;;;;;6.97;4.55;;;;;;;4.88;84.06;101480.20;1837405;78;21027;-61
2022/01/24 11:53:21;;;;;;;7.80;4.47;;;;;;;4.95;84.58;101488.89;1871682;76;21047;-62
2022/01/24 11:55:54;;;;;;;7.10;4.05;;;;;;;4.95;86.00;101492.81;1850408;77;21106;-61
2022/01/24 11:58:29;;;;;;;6.80;4.58;;;;;;;5.39;85.85;101489.98;1837110;78;21216;-61
2022/01/24 12:01:04;;;;;;;5.80;3.90;;;;;;;5.28;85.82;101496.16;1871893;77;21039;-61
2022/01/24 12:03:29;;;;;;;6.75;3.62;;;;;;;4.91;85.75;101497.17;1849471;77;21036;-61
2022/01/24 12:06:08;;;;;;;5.95;4.12;;;;;;;4.73;86.16;101507.66;1837387;78;21059;-61
2022/01/24 12:08:36;;;;;;;7.87;4.40;;;;;;;4.45;86.27;101516.85;1871209;76;21502;-61
2022/01/24 12:11:23;;;;;;;12.60;5.45;;;;;;;4.14;86.36;101518.61;1871896;77;21515;-61
2022/01/24 12:13:56;;;;;;;10.28;5.15;;;;;;;3.74;86.26;101523.77;1871742;76;21087;-61
2022/01/24 12:16:29;;;;;;;12.05;6.50;;;;;;;3.58;86.75;101533.27;1872130;77;21055;-62
2022/01/24 12:19:03;;;;;;;12.68;6.45;;;;;;;3.52;87.21;101542.39;1869530;76;21071;-62
2022/01/24 12:21:34;;;;;;;12.88;5.70;;;;;;;3.48;87.70;101547.57;1850209;77;21044;-62
2022/01/24 12:24:06;;;;;;;12.58;6.65;;;;;;;3.53;88.42;101555.41;1837179;78;21055;-63
2022/01/24 12:26:37;;;;;;;10.95;5.33;;;;;;;3.59;88.55;101563.67;1868026;77;21152;-62
2022/01/24 12:29:09;;;;;;;13.68;7.85;;;;;;;3.56;88.14;101556.73;1868191;76;21049;-62
2022/01/24 12:31:44;;;;;;;13.78;7.28;;;;;;;3.37;87.16;101553.62;1868517;77;21065;-62
2022/01/24 12:34:34;;;;;;;12.18;6.20;;;;;;;3.24;87.66;101552.70;1868496;77;21135;-62
2022/01/24 12:37:07;;;;;;;13.03;6.28;;;;;;;3.20;88.12;101544.45;1868472;77;21566;-62
2022/01/24 12:39:50;;;;;;;16.40;6.95;;;;;;;3.19;88.71;101552.70;1868775;77;21166;-62
2022/01/24 12:42:33;;;;;;;16.77;7.45;;;;;;;3.12;88.28;101550.03;1868331;76;21077;-62
2022/01/24 12:47:30;;;;;;;13.75;6.97;;;;;;;3.02;88.46;101555.19;1848311;77;21132;-62
2022/01/24 12:49:59;;;;;;;15.08;7.55;;;;;;;2.84;87.64;101553.78;1868486;77;21574;-62
2022/01/24 12:52:29;;;;;;;15.98;7.55;;;;;;;2.80;88.16;101562.44;1868589;77;21078;-62
2022/01/24 12:55:01;;;;;;;13.43;5.90;;;;;;;2.79;88.69;101563.32;1868727;77;21045;-62
2022/01/24 12:57:32;;;;;;;14.43;7.72;;;;;;;2.77;88.98;101558.11;1868596;77;21042;-63
2022/01/24 13:00:09;;;;;;;14.33;7.75;;;;;;;2.74;89.07;101581.92;1868688;77;21140;-62
2022/01/24 13:02:39;;;;;;;12.63;7.00;;;;;;;2.72;89.18;101572.80;1868708;77;21546;-62
2022/01/24 13:05:10;;;;;;;18.30;9.30;;;;;;;2.70;89.10;101578.42;1868601;77;21143;-62
2022/01/24 13:07:41;;;;;;;12.78;6.75;;;;;;;2.64;89.18;101587.05;1868743;77;21463;-62
2022/01/24 13:10:18;;;;;;;15.40;7.20;;;;;;;2.62;89.01;101596.58;1868461;77;21494;-62
2022/01/24 13:12:50;;;;;;;18.87;8.63;;;;;;;2.60;89.34;101602.20;1868570;77;21045;-62
2022/01/24 13:15:26;;;;;;;25.70;9.08;;;;;;;2.58;89.47;101599.98;1867821;77;21041;-62
2022/01/24 13:21:26;;;;;;;19.35;8.28;;;;;;;2.48;89.34;101581.30;1868457;77;21152;-63
2022/01/24 13:23:11;;;;;;;19.63;9.53;;;;;;;2.44;89.18;101584.73;1856623;77;21123;-62
2022/01/24 13:25:40;;;;;;;20.57;9.18;;;;;;;2.40;89.18;101596.84;1868665;76;21045;-62
2022/01/24 13:28:16;;;;;;;23.05;9.58;;;;;;;2.37;89.15;101595.50;1868324;77;21147;-62
2022/01/24 13:30:51;;;;;;;24.52;9.43;;;;;;;2.36;89.14;101593.78;1868555;77;21141;-62